sensor_id;sensor_type;location;lat;lon;timestamp;pressure;altitude;pressure_sealevel;temperature;humidity
57000;BME280;42891;50.006;21.964;2022-11-15T00:03:30;99423.19;;;6.40;90.45
57000;BME280;42891;50.006;21.964;2022-11-15T00:07:31;99426.44;;;6.44;90.20
57000;BME280;42891;50.006;21.964;2022-11-15T00:11:31;99424.59;;;6.31;90.24
57000;BME280;42891;50.006;21.964;2022-11-15T00:15:34;99405.31;;;6.32;90.06
57000;BME280;42891;50.006;21.964;2022-11-15T00:19:34;99407.63;;;6.10;90.92
57000;BME280;42891;50.006;21.964;2022-11-15T00:23:35;99410.09;;;6.26;91.46
57000;BME280;42891;50.006;21.964;2022-11-15T00:27:35;99403.00;;;6.28;91.39
57000;BME280;42891;50.006;21.964;2022-11-15T00:31:35;99393.53;;;6.25;91.04
57000;BME280;42891;50.006;21.964;2022-11-15T00:35:36;99378.94;;;6.21;91.39
57000;BME280;42891;50.006;21.964;2022-11-15T00:39:36;99391.66;;;6.27;90.96
57000;BME280;42891;50.006;21.964;2022-11-15T00:43:37;99364.50;;;6.01;92.37
57000;BME280;42891;50.006;21.964;2022-11-15T00:47:39;99378.66;;;6.26;91.67
57000;BME280;42891;50.006;21.964;2022-11-15T00:51:40;99377.53;;;5.74;92.44
57000;BME280;42891;50.006;21.964;2022-11-15T00:55:40;99375.38;;;5.80;92.23
57000;BME280;42891;50.006;21.964;2022-11-15T00:59:40;99369.47;;;5.91;91.61
57000;BME280;42891;50.006;21.964;2022-11-15T01:03:41;99372.28;;;6.03;92.12
57000;BME280;42891;50.006;21.964;2022-11-15T01:07:41;99366.28;;;5.86;91.18
57000;BME280;42891;50.006;21.964;2022-11-15T01:11:42;99349.53;;;5.89;91.47
57000;BME280;42891;50.006;21.964;2022-11-15T01:15:42;99374.50;;;6.09;91.43
57000;BME280;42891;50.006;21.964;2022-11-15T01:19:43;99369.81;;;6.14;91.21
57000;BME280;42891;50.006;21.964;2022-11-15T01:23:43;99357.00;;;6.09;90.75
57000;BME280;42891;50.006;21.964;2022-11-15T01:27:44;99348.78;;;6.01;90.91
57000;BME280;42891;50.006;21.964;2022-11-15T01:31:45;99340.09;;;6.13;89.53
57000;BME280;42891;50.006;21.964;2022-11-15T01:35:45;99356.06;;;5.96;89.85
57000;BME280;42891;50.006;21.964;2022-11-15T01:39:45;99342.56;;;6.02;90.17
57000;BME280;42891;50.006;21.964;2022-11-15T01:43:53;99332.09;;;6.02;90.71
57000;BME280;42891;50.006;21.964;2022-11-15T01:47:54;99338.72;;;6.08;90.87
57000;BME280;42891;50.006;21.964;2022-11-15T01:51:56;99330.97;;;6.06;91.06
57000;BME280;42891;50.006;21.964;2022-11-15T01:55:57;99327.59;;;6.04;90.82
57000;BME280;42891;50.006;21.964;2022-11-15T01:59:59;99323.59;;;5.99;90.47
57000;BME280;42891;50.006;21.964;2022-11-15T02:04:24;99324.69;;;6.09;90.30
57000;BME280;42891;50.006;21.964;2022-11-15T02:08:27;99321.72;;;6.01;89.62
57000;BME280;42891;50.006;21.964;2022-11-15T02:12:27;99321.44;;;6.05;90.03
57000;BME280;42891;50.006;21.964;2022-11-15T02:33:52;99305.69;;;6.05;88.66
57000;BME280;42891;50.006;21.964;2022-11-15T02:42:02;99306.34;;;5.94;88.68
57000;BME280;42891;50.006;21.964;2022-11-15T02:46:26;99294.88;;;5.83;88.58
57000;BME280;42891;50.006;21.964;2022-11-15T02:50:48;99297.75;;;5.92;88.57
57000;BME280;42891;50.006;21.964;2022-11-15T02:54:53;99309.47;;;5.87;89.28
57000;BME280;42891;50.006;21.964;2022-11-15T03:07:17;99281.81;;;5.68;90.24
57000;BME280;42891;50.006;21.964;2022-11-15T03:11:19;99279.75;;;5.73;89.62
57000;BME280;42891;50.006;21.964;2022-11-15T03:16:02;99280.91;;;5.69;89.78
57000;BME280;42891;50.006;21.964;2022-11-15T03:20:04;99275.41;;;5.45;89.44
57000;BME280;42891;50.006;21.964;2022-11-15T03:24:07;99250.78;;;5.06;90.60
57000;BME280;42891;50.006;21.964;2022-11-15T03:28:11;99258.47;;;4.94;91.06
57000;BME280;42891;50.006;21.964;2022-11-15T03:32:17;99256.41;;;4.85;91.55
57000;BME280;42891;50.006;21.964;2022-11-15T03:36:19;99260.78;;;4.70;93.76
57000;BME280;42891;50.006;21.964;2022-11-15T03:40:27;99232.03;;;4.85;91.57
57000;BME280;42891;50.006;21.964;2022-11-15T03:49:34;99236.84;;;4.62;91.16
57000;BME280;42891;50.006;21.964;2022-11-15T03:53:35;99243.13;;;4.88;90.04
57000;BME280;42891;50.006;21.964;2022-11-15T03:57:35;99220.53;;;4.87;89.62
57000;BME280;42891;50.006;21.964;2022-11-15T04:01:35;99228.38;;;4.87;88.80
57000;BME280;42891;50.006;21.964;2022-11-15T04:05:36;99227.16;;;4.93;88.68
57000;BME280;42891;50.006;21.964;2022-11-15T04:09:36;99233.94;;;4.95;88.08
57000;BME280;42891;50.006;21.964;2022-11-15T04:13:59;99220.88;;;4.95;88.22
57000;BME280;42891;50.006;21.964;2022-11-15T04:17:59;99205.66;;;4.88;87.76
57000;BME280;42891;50.006;21.964;2022-11-15T04:22:00;99209.47;;;4.97;87.67
57000;BME280;42891;50.006;21.964;2022-11-15T04:26:21;99204.34;;;4.95;88.04
57000;BME280;42891;50.006;21.964;2022-11-15T04:30:22;99195.66;;;4.80;87.48
57000;BME280;42891;50.006;21.964;2022-11-15T04:34:22;99209.28;;;4.85;87.61
57000;BME280;42891;50.006;21.964;2022-11-15T04:38:22;99212.66;;;4.73;89.39
57000;BME280;42891;50.006;21.964;2022-11-15T04:42:22;99215.91;;;4.33;89.10
57000;BME280;42891;50.006;21.964;2022-11-15T04:46:23;99204.44;;;4.50;89.20
57000;BME280;42891;50.006;21.964;2022-11-15T04:50:24;99214.53;;;4.56;88.81
57000;BME280;42891;50.006;21.964;2022-11-15T04:54:24;99210.78;;;4.46;89.43
57000;BME280;42891;50.006;21.964;2022-11-15T04:58:25;99213.69;;;4.56;88.81
57000;BME280;42891;50.006;21.964;2022-11-15T05:02:25;99210.34;;;4.68;88.62
57000;BME280;42891;50.006;21.964;2022-11-15T05:06:49;99185.22;;;4.51;88.65
57000;BME280;42891;50.006;21.964;2022-11-15T05:10:49;99165.78;;;4.41;88.06
57000;BME280;42891;50.006;21.964;2022-11-15T05:14:50;99192.56;;;4.59;87.18
57000;BME280;42891;50.006;21.964;2022-11-15T05:18:51;99191.34;;;4.65;87.81
57000;BME280;42891;50.006;21.964;2022-11-15T05:22:53;99169.69;;;4.48;87.65
57000;BME280;42891;50.006;21.964;2022-11-15T05:26:53;99172.41;;;4.47;85.75
57000;BME280;42891;50.006;21.964;2022-11-15T05:31:03;99171.28;;;4.36;85.49
57000;BME280;42891;50.006;21.964;2022-11-15T05:35:06;99156.63;;;4.34;85.59
57000;BME280;42891;50.006;21.964;2022-11-15T05:39:08;99164.19;;;4.38;85.31
57000;BME280;42891;50.006;21.964;2022-11-15T05:43:10;99161.84;;;4.34;86.03
57000;BME280;42891;50.006;21.964;2022-11-15T05:47:13;99157.06;;;4.26;86.11
57000;BME280;42891;50.006;21.964;2022-11-15T05:51:17;99145.97;;;4.22;85.80
57000;BME280;42891;50.006;21.964;2022-11-15T05:55:19;99165.28;;;4.20;86.50
57000;BME280;42891;50.006;21.964;2022-11-15T05:59:19;99170.81;;;4.30;86.84
57000;BME280;42891;50.006;21.964;2022-11-15T06:03:20;99158.03;;;4.25;86.50
57000;BME280;42891;50.006;21.964;2022-11-15T06:07:20;99144.53;;;4.02;88.29
57000;BME280;42891;50.006;21.964;2022-11-15T06:11:21;99156.22;;;4.11;87.62
57000;BME280;42891;50.006;21.964;2022-11-15T06:15:21;99152.63;;;3.83;87.74
57000;BME280;42891;50.006;21.964;2022-11-15T06:19:21;99160.53;;;3.82;88.10
57000;BME280;42891;50.006;21.964;2022-11-15T06:23:21;99153.84;;;3.62;88.78
57000;BME280;42891;50.006;21.964;2022-11-15T06:27:22;99134.25;;;3.54;89.51
57000;BME280;42891;50.006;21.964;2022-11-15T06:31:22;99141.72;;;3.61;88.51
57000;BME280;42891;50.006;21.964;2022-11-15T06:35:22;99151.03;;;3.81;88.53
57000;BME280;42891;50.006;21.964;2022-11-15T06:39:22;99145.63;;;3.84;88.38
57000;BME280;42891;50.006;21.964;2022-11-15T06:43:23;99143.63;;;3.73;88.17
57000;BME280;42891;50.006;21.964;2022-11-15T06:47:23;99139.09;;;3.91;88.44
57000;BME280;42891;50.006;21.964;2022-11-15T06:51:23;99130.53;;;3.58;88.13
57000;BME280;42891;50.006;21.964;2022-11-15T06:55:23;99144.50;;;3.73;88.58
57000;BME280;42891;50.006;21.964;2022-11-15T06:59:24;99146.94;;;3.91;88.92
57000;BME280;42891;50.006;21.964;2022-11-15T07:03:24;99132.75;;;3.81;89.43
57000;BME280;42891;50.006;21.964;2022-11-15T07:07:24;99144.13;;;3.80;89.49
57000;BME280;42891;50.006;21.964;2022-11-15T07:11:25;99142.91;;;3.85;90.19
57000;BME280;42891;50.006;21.964;2022-11-15T07:15:25;99130.44;;;3.90;90.32
57000;BME280;42891;50.006;21.964;2022-11-15T07:19:26;99137.19;;;4.67;88.00
57000;BME280;42891;50.006;21.964;2022-11-15T07:23:26;99109.66;;;4.61;89.12
57000;BME280;42891;50.006;21.964;2022-11-15T07:27:26;99130.25;;;4.94;89.62
57000;BME280;42891;50.006;21.964;2022-11-15T07:31:27;99125.06;;;5.07;89.17
57000;BME280;42891;50.006;21.964;2022-11-15T07:35:28;99118.72;;;5.24;89.04
57000;BME280;42891;50.006;21.964;2022-11-15T07:39:29;99118.56;;;5.27;88.98
57000;BME280;42891;50.006;21.964;2022-11-15T07:43:30;99118.88;;;5.36;88.56
57000;BME280;42891;50.006;21.964;2022-11-15T07:47:32;99120.19;;;5.43;88.32
57000;BME280;42891;50.006;21.964;2022-11-15T07:51:33;99110.72;;;5.40;87.53
57000;BME280;42891;50.006;21.964;2022-11-15T07:55:33;99111.69;;;5.52;88.77
57000;BME280;42891;50.006;21.964;2022-11-15T07:59:33;99110.28;;;5.61;88.64
57000;BME280;42891;50.006;21.964;2022-11-15T08:03:35;99098.66;;;5.65;87.75
57000;BME280;42891;50.006;21.964;2022-11-15T08:07:35;99105.03;;;5.74;88.06
57000;BME280;42891;50.006;21.964;2022-11-15T08:11:35;99076.22;;;5.74;88.66
57000;BME280;42891;50.006;21.964;2022-11-15T08:15:36;99053.34;;;5.63;88.63
57000;BME280;42891;50.006;21.964;2022-11-15T08:19:37;99082.72;;;5.94;88.06
57000;BME280;42891;50.006;21.964;2022-11-15T08:23:37;99075.03;;;6.05;88.11
57000;BME280;42891;50.006;21.964;2022-11-15T08:27:37;99075.53;;;6.10;88.30
57000;BME280;42891;50.006;21.964;2022-11-15T08:31:40;99070.06;;;6.13;87.15
57000;BME280;42891;50.006;21.964;2022-11-15T08:35:41;99054.75;;;6.20;87.13
57000;BME280;42891;50.006;21.964;2022-11-15T08:39:42;99066.91;;;6.34;88.34
57000;BME280;42891;50.006;21.964;2022-11-15T08:43:42;99048.00;;;6.42;88.51
57000;BME280;42891;50.006;21.964;2022-11-15T08:47:43;99053.97;;;6.57;89.17
57000;BME280;42891;50.006;21.964;2022-11-15T08:51:44;99054.53;;;6.73;87.84
57000;BME280;42891;50.006;21.964;2022-11-15T08:55:45;99031.00;;;6.72;87.56
57000;BME280;42891;50.006;21.964;2022-11-15T08:59:45;99027.91;;;6.91;87.67
57000;BME280;42891;50.006;21.964;2022-11-15T09:03:45;99030.72;;;7.12;87.46
57000;BME280;42891;50.006;21.964;2022-11-15T09:07:46;98997.47;;;7.12;87.40
57000;BME280;42891;50.006;21.964;2022-11-15T09:11:46;99017.47;;;7.38;86.56
57000;BME280;42891;50.006;21.964;2022-11-15T09:15:46;99016.81;;;7.58;85.79
57000;BME280;42891;50.006;21.964;2022-11-15T09:19:47;99009.63;;;7.72;84.93
57000;BME280;42891;50.006;21.964;2022-11-15T09:23:50;99003.22;;;7.87;86.98
57000;BME280;42891;50.006;21.964;2022-11-15T09:27:51;98989.47;;;7.95;85.73
57000;BME280;42891;50.006;21.964;2022-11-15T09:31:52;98985.31;;;8.15;84.69
57000;BME280;42891;50.006;21.964;2022-11-15T09:35:52;98984.09;;;8.30;85.41
57000;BME280;42891;50.006;21.964;2022-11-15T09:39:53;98974.03;;;8.47;84.43
57000;BME280;42891;50.006;21.964;2022-11-15T09:52:20;98963.88;;;9.07;82.63
57000;BME280;42891;50.006;21.964;2022-11-15T09:56:26;98964.03;;;9.27;81.31
57000;BME280;42891;50.006;21.964;2022-11-15T10:00:32;98959.13;;;9.43;81.28
57000;BME280;42891;50.006;21.964;2022-11-15T10:04:36;98936.38;;;9.42;79.84
57000;BME280;42891;50.006;21.964;2022-11-15T10:08:50;98948.56;;;9.64;80.00
57000;BME280;42891;50.006;21.964;2022-11-15T10:12:52;98932.94;;;9.72;78.60
57000;BME280;42891;50.006;21.964;2022-11-15T10:20:59;98923.81;;;9.86;78.61
57000;BME280;42891;50.006;21.964;2022-11-15T10:29:03;98928.84;;;9.99;79.38
57000;BME280;42891;50.006;21.964;2022-11-15T10:33:21;98917.06;;;10.03;78.31
57000;BME280;42891;50.006;21.964;2022-11-15T10:37:31;98911.53;;;10.06;78.87
57000;BME280;42891;50.006;21.964;2022-11-15T10:41:35;98908.34;;;10.13;78.36
57000;BME280;42891;50.006;21.964;2022-11-15T10:45:37;98913.50;;;10.24;78.07
57000;BME280;42891;50.006;21.964;2022-11-15T10:49:53;98904.50;;;10.27;77.90
57000;BME280;42891;50.006;21.964;2022-11-15T10:53:59;98891.44;;;10.25;77.31
57000;BME280;42891;50.006;21.964;2022-11-15T11:02:35;98912.63;;;10.54;77.19
57000;BME280;42891;50.006;21.964;2022-11-15T11:06:50;98900.94;;;10.57;76.47
57000;BME280;42891;50.006;21.964;2022-11-15T11:10:55;98898.88;;;10.61;74.68
57000;BME280;42891;50.006;21.964;2022-11-15T11:14:56;98896.50;;;10.87;74.36
57000;BME280;42891;50.006;21.964;2022-11-15T11:19:16;98883.94;;;11.08;74.51
57000;BME280;42891;50.006;21.964;2022-11-15T11:32:06;98867.56;;;15.18;56.79
57000;BME280;42891;50.006;21.964;2022-11-15T11:40:33;98851.63;;;13.77;62.63
57000;BME280;42891;50.006;21.964;2022-11-15T11:53:47;98832.25;;;13.85;64.34
57000;BME280;42891;50.006;21.964;2022-11-15T11:58:14;98815.25;;;14.53;61.23
57000;BME280;42891;50.006;21.964;2022-11-15T12:02:35;98815.00;;;16.78;56.26
57000;BME280;42891;50.006;21.964;2022-11-15T12:11:03;98791.19;;;19.46;48.97
57000;BME280;42891;50.006;21.964;2022-11-15T12:15:22;98798.16;;;19.82;45.26
57000;BME280;42891;50.006;21.964;2022-11-15T12:19:23;98778.22;;;19.98;44.61
57000;BME280;42891;50.006;21.964;2022-11-15T12:23:28;98765.50;;;20.67;43.61
57000;BME280;42891;50.006;21.964;2022-11-15T12:27:41;98772.47;;;20.01;43.36
57000;BME280;42891;50.006;21.964;2022-11-15T12:31:45;98771.84;;;20.12;43.12
57000;BME280;42891;50.006;21.964;2022-11-15T12:35:58;98771.72;;;20.74;41.75
57000;BME280;42891;50.006;21.964;2022-11-15T12:52:36;98752.53;;;21.94;40.63
57000;BME280;42891;50.006;21.964;2022-11-15T13:01:06;98741.56;;;23.04;38.72
57000;BME280;42891;50.006;21.964;2022-11-15T13:13:43;98736.44;;;23.88;37.29
57000;BME280;42891;50.006;21.964;2022-11-15T13:17:51;98727.88;;;23.91;37.23
57000;BME280;42891;50.006;21.964;2022-11-15T13:21:52;98727.31;;;23.71;38.32
57000;BME280;42891;50.006;21.964;2022-11-15T13:26:13;98718.94;;;22.86;40.91
57000;BME280;42891;50.006;21.964;2022-11-15T13:30:28;98717.34;;;22.35;39.61
57000;BME280;42891;50.006;21.964;2022-11-15T13:34:31;98722.63;;;22.48;40.60
57000;BME280;42891;50.006;21.964;2022-11-15T13:38:35;98728.81;;;22.17;41.32
57000;BME280;42891;50.006;21.964;2022-11-15T13:42:35;98720.91;;;21.96;38.94
57000;BME280;42891;50.006;21.964;2022-11-15T13:46:36;98718.56;;;21.16;39.03
57000;BME280;42891;50.006;21.964;2022-11-15T13:50:37;98714.63;;;21.77;39.57
57000;BME280;42891;50.006;21.964;2022-11-15T13:54:46;98705.53;;;21.26;40.70
57000;BME280;42891;50.006;21.964;2022-11-15T13:58:48;98702.38;;;20.71;40.11
57000;BME280;42891;50.006;21.964;2022-11-15T14:02:48;98697.16;;;19.82;42.07
57000;BME280;42891;50.006;21.964;2022-11-15T14:06:51;98700.97;;;19.39;43.83
57000;BME280;42891;50.006;21.964;2022-11-15T14:11:07;98679.81;;;18.39;44.99
57000;BME280;42891;50.006;21.964;2022-11-15T14:15:38;98699.78;;;17.79;48.61
57000;BME280;42891;50.006;21.964;2022-11-15T14:19:39;98692.16;;;17.39;48.54
57000;BME280;42891;50.006;21.964;2022-11-15T14:23:40;98686.69;;;17.11;48.52
57000;BME280;42891;50.006;21.964;2022-11-15T14:27:43;98679.78;;;16.18;49.54
57000;BME280;42891;50.006;21.964;2022-11-15T14:31:43;98674.56;;;15.87;50.22
57000;BME280;42891;50.006;21.964;2022-11-15T14:35:46;98672.72;;;15.88;50.70
57000;BME280;42891;50.006;21.964;2022-11-15T14:39:47;98666.03;;;15.92;51.94
57000;BME280;42891;50.006;21.964;2022-11-15T14:43:48;98661.75;;;15.28;54.57
57000;BME280;42891;50.006;21.964;2022-11-15T14:47:49;98666.63;;;14.76;56.31
57000;BME280;42891;50.006;21.964;2022-11-15T14:51:49;98670.47;;;14.65;56.36
57000;BME280;42891;50.006;21.964;2022-11-15T14:55:50;98665.84;;;14.43;58.78
57000;BME280;42891;50.006;21.964;2022-11-15T14:59:50;98670.81;;;14.38;58.47
57000;BME280;42891;50.006;21.964;2022-11-15T15:03:51;98668.88;;;14.15;58.81
57000;BME280;42891;50.006;21.964;2022-11-15T15:07:52;98654.63;;;14.00;60.45
57000;BME280;42891;50.006;21.964;2022-11-15T15:11:55;98665.38;;;13.65;60.22
57000;BME280;42891;50.006;21.964;2022-11-15T15:15:55;98661.38;;;13.53;59.49
57000;BME280;42891;50.006;21.964;2022-11-15T15:19:56;98667.09;;;13.32;61.10
57000;BME280;42891;50.006;21.964;2022-11-15T15:23:56;98646.34;;;13.10;59.76
57000;BME280;42891;50.006;21.964;2022-11-15T15:27:56;98652.63;;;13.09;59.80
57000;BME280;42891;50.006;21.964;2022-11-15T15:31:56;98648.03;;;13.28;60.58
57000;BME280;42891;50.006;21.964;2022-11-15T15:35:57;98649.00;;;13.19;61.41
57000;BME280;42891;50.006;21.964;2022-11-15T15:39:57;98644.16;;;13.06;62.83
57000;BME280;42891;50.006;21.964;2022-11-15T15:43:58;98635.19;;;12.99;63.54
57000;BME280;42891;50.006;21.964;2022-11-15T15:47:58;98629.75;;;12.66;62.95
57000;BME280;42891;50.006;21.964;2022-11-15T15:51:58;98625.81;;;12.43;63.39
57000;BME280;42891;50.006;21.964;2022-11-15T15:55:58;98634.91;;;12.41;61.87
57000;BME280;42891;50.006;21.964;2022-11-15T15:59:59;98625.91;;;12.07;62.30
57000;BME280;42891;50.006;21.964;2022-11-15T16:03:59;98620.28;;;12.02;62.95
57000;BME280;42891;50.006;21.964;2022-11-15T16:07:59;98618.94;;;11.80;63.79
57000;BME280;42891;50.006;21.964;2022-11-15T16:12:00;98619.22;;;11.95;63.84
57000;BME280;42891;50.006;21.964;2022-11-15T16:16:00;98612.53;;;12.09;64.03
57000;BME280;42891;50.006;21.964;2022-11-15T16:20:01;98592.00;;;12.03;65.80
57000;BME280;42891;50.006;21.964;2022-11-15T16:24:01;98608.09;;;12.09;63.64
57000;BME280;42891;50.006;21.964;2022-11-15T16:28:01;98603.47;;;11.93;64.58
57000;BME280;42891;50.006;21.964;2022-11-15T16:32:01;98594.09;;;11.99;63.14
57000;BME280;42891;50.006;21.964;2022-11-15T16:36:03;98608.75;;;12.11;64.78
57000;BME280;42891;50.006;21.964;2022-11-15T16:40:04;98596.16;;;11.87;64.46
57000;BME280;42891;50.006;21.964;2022-11-15T16:44:04;98605.38;;;11.83;62.60
57000;BME280;42891;50.006;21.964;2022-11-15T16:48:05;98606.34;;;12.00;63.56
57000;BME280;42891;50.006;21.964;2022-11-15T16:52:05;98605.75;;;12.06;62.78
57000;BME280;42891;50.006;21.964;2022-11-15T16:56:29;98610.84;;;12.00;64.40
57000;BME280;42891;50.006;21.964;2022-11-15T17:00:29;98600.00;;;11.93;65.19
57000;BME280;42891;50.006;21.964;2022-11-15T17:04:30;98581.56;;;11.83;64.80
57000;BME280;42891;50.006;21.964;2022-11-15T17:08:32;98599.06;;;11.94;66.74
57000;BME280;42891;50.006;21.964;2022-11-15T17:12:34;98595.53;;;11.93;65.58
57000;BME280;42891;50.006;21.964;2022-11-15T17:16:35;98600.25;;;11.82;65.49
57000;BME280;42891;50.006;21.964;2022-11-15T17:20:37;98589.53;;;11.65;66.18
57000;BME280;42891;50.006;21.964;2022-11-15T17:24:37;98585.25;;;11.46;64.81
57000;BME280;42891;50.006;21.964;2022-11-15T17:28:38;98571.59;;;11.51;66.65
57000;BME280;42891;50.006;21.964;2022-11-15T17:32:39;98560.41;;;11.39;66.22
57000;BME280;42891;50.006;21.964;2022-11-15T17:36:39;98576.03;;;11.50;66.24
57000;BME280;42891;50.006;21.964;2022-11-15T17:40:39;98568.63;;;11.36;67.85
57000;BME280;42891;50.006;21.964;2022-11-15T17:44:39;98571.34;;;11.44;68.10
57000;BME280;42891;50.006;21.964;2022-11-15T17:48:40;98573.00;;;11.45;68.05
57000;BME280;42891;50.006;21.964;2022-11-15T17:52:40;98566.44;;;11.31;67.70
57000;BME280;42891;50.006;21.964;2022-11-15T17:56:41;98554.38;;;11.29;67.09
57000;BME280;42891;50.006;21.964;2022-11-15T18:00:41;98553.59;;;11.36;66.75
57000;BME280;42891;50.006;21.964;2022-11-15T18:04:41;98538.22;;;11.14;65.37
57000;BME280;42891;50.006;21.964;2022-11-15T18:08:43;98541.09;;;11.20;63.94
57000;BME280;42891;50.006;21.964;2022-11-15T18:12:43;98522.66;;;11.11;64.71
57000;BME280;42891;50.006;21.964;2022-11-15T18:16:44;98538.72;;;11.17;65.08
57000;BME280;42891;50.006;21.964;2022-11-15T18:20:44;98511.88;;;11.04;66.77
57000;BME280;42891;50.006;21.964;2022-11-15T18:24:44;98531.09;;;11.14;67.68
57000;BME280;42891;50.006;21.964;2022-11-15T18:28:47;98533.66;;;11.06;63.82
57000;BME280;42891;50.006;21.964;2022-11-15T18:32:48;98521.13;;;10.72;64.08
57000;BME280;42891;50.006;21.964;2022-11-15T18:36:50;98514.16;;;10.71;64.23
57000;BME280;42891;50.006;21.964;2022-11-15T18:40:51;98529.44;;;10.95;65.22
57000;BME280;42891;50.006;21.964;2022-11-15T18:44:51;98524.53;;;11.00;64.43
57000;BME280;42891;50.006;21.964;2022-11-15T18:48:52;98521.88;;;11.00;64.25
57000;BME280;42891;50.006;21.964;2022-11-15T18:52:53;98521.66;;;10.94;65.71
57000;BME280;42891;50.006;21.964;2022-11-15T18:56:54;98525.50;;;10.81;64.16
57000;BME280;42891;50.006;21.964;2022-11-15T19:01:20;98512.38;;;10.89;66.78
57000;BME280;42891;50.006;21.964;2022-11-15T19:05:19;98517.13;;;10.86;67.85
57000;BME280;42891;50.006;21.964;2022-11-15T19:09:20;98519.25;;;11.00;68.30
57000;BME280;42891;50.006;21.964;2022-11-15T19:13:20;98512.75;;;10.95;68.59
57000;BME280;42891;50.006;21.964;2022-11-15T19:17:21;98490.88;;;10.84;66.30
57000;BME280;42891;50.006;21.964;2022-11-15T19:21:21;98499.16;;;10.89;67.25
57000;BME280;42891;50.006;21.964;2022-11-15T19:25:22;98500.91;;;10.99;66.72
57000;BME280;42891;50.006;21.964;2022-11-15T19:29:29;98498.81;;;10.84;64.67
57000;BME280;42891;50.006;21.964;2022-11-15T19:33:30;98495.97;;;10.50;65.11
57000;BME280;42891;50.006;21.964;2022-11-15T19:37:34;98489.59;;;10.15;66.13
57000;BME280;42891;50.006;21.964;2022-11-15T19:41:35;98502.56;;;9.98;66.18
57000;BME280;42891;50.006;21.964;2022-11-15T19:45:37;98492.59;;;9.82;66.11
57000;BME280;42891;50.006;21.964;2022-11-15T19:49:37;98494.56;;;9.80;66.35
57000;BME280;42891;50.006;21.964;2022-11-15T19:53:37;98478.50;;;9.64;66.46
57000;BME280;42891;50.006;21.964;2022-11-15T19:57:38;98478.59;;;9.82;66.47
57000;BME280;42891;50.006;21.964;2022-11-15T20:01:38;98466.19;;;9.92;65.97
57000;BME280;42891;50.006;21.964;2022-11-15T20:05:38;98467.22;;;10.09;66.29
57000;BME280;42891;50.006;21.964;2022-11-15T20:09:39;98464.59;;;10.09;65.79
57000;BME280;42891;50.006;21.964;2022-11-15T20:13:40;98460.47;;;10.06;65.59
57000;BME280;42891;50.006;21.964;2022-11-15T20:17:40;98463.09;;;10.06;66.22
57000;BME280;42891;50.006;21.964;2022-11-15T20:21:42;98448.97;;;9.98;66.48
57000;BME280;42891;50.006;21.964;2022-11-15T20:25:44;98455.19;;;10.06;66.33
57000;BME280;42891;50.006;21.964;2022-11-15T20:29:45;98443.13;;;10.04;66.41
57000;BME280;42891;50.006;21.964;2022-11-15T20:33:47;98453.22;;;10.09;66.66
57000;BME280;42891;50.006;21.964;2022-11-15T20:37:48;98430.34;;;9.99;67.75
57000;BME280;42891;50.006;21.964;2022-11-15T20:41:48;98444.84;;;10.13;67.25
57000;BME280;42891;50.006;21.964;2022-11-15T20:45:48;98429.47;;;10.09;67.11
57000;BME280;42891;50.006;21.964;2022-11-15T20:49:49;98432.72;;;10.02;67.25
57000;BME280;42891;50.006;21.964;2022-11-15T20:53:50;98438.31;;;10.17;66.82
57000;BME280;42891;50.006;21.964;2022-11-15T20:57:50;98413.25;;;10.03;67.19
57000;BME280;42891;50.006;21.964;2022-11-15T21:01:51;98425.78;;;10.01;67.52
57000;BME280;42891;50.006;21.964;2022-11-15T21:05:52;98429.47;;;10.09;67.07
57000;BME280;42891;50.006;21.964;2022-11-15T21:09:52;98424.28;;;9.89;66.97
57000;BME280;42891;50.006;21.964;2022-11-15T21:14:11;98419.03;;;9.89;67.23
57000;BME280;42891;50.006;21.964;2022-11-15T21:18:11;98420.69;;;9.90;67.04
57000;BME280;42891;50.006;21.964;2022-11-15T21:22:13;98408.31;;;9.90;67.50
57000;BME280;42891;50.006;21.964;2022-11-15T21:26:13;98407.75;;;9.97;67.08
57000;BME280;42891;50.006;21.964;2022-11-15T21:30:13;98403.44;;;9.96;66.99
57000;BME280;42891;50.006;21.964;2022-11-15T21:34:14;98405.53;;;9.92;67.13
57000;BME280;42891;50.006;21.964;2022-11-15T21:38:14;98391.13;;;9.86;66.44
57000;BME280;42891;50.006;21.964;2022-11-15T21:42:15;98377.44;;;9.73;66.67
57000;BME280;42891;50.006;21.964;2022-11-15T21:46:15;98375.72;;;9.64;66.37
57000;BME280;42891;50.006;21.964;2022-11-15T21:50:16;98389.63;;;9.84;66.61
57000;BME280;42891;50.006;21.964;2022-11-15T21:54:16;98379.38;;;9.81;66.54
57000;BME280;42891;50.006;21.964;2022-11-15T21:58:20;98369.31;;;9.66;66.53
57000;BME280;42891;50.006;21.964;2022-11-15T22:02:20;98369.50;;;9.55;66.90
57000;BME280;42891;50.006;21.964;2022-11-15T22:06:21;98353.00;;;9.53;66.96
57000;BME280;42891;50.006;21.964;2022-11-15T22:10:21;98359.50;;;9.59;66.98
57000;BME280;42891;50.006;21.964;2022-11-15T22:14:21;98329.16;;;9.45;67.36
57000;BME280;42891;50.006;21.964;2022-11-15T22:18:23;98349.34;;;9.64;66.83
57000;BME280;42891;50.006;21.964;2022-11-15T22:22:26;98355.69;;;9.71;66.83
57000;BME280;42891;50.006;21.964;2022-11-15T22:26:26;98354.81;;;9.80;66.79
57000;BME280;42891;50.006;21.964;2022-11-15T22:30:26;98344.78;;;9.84;66.71
57000;BME280;42891;50.006;21.964;2022-11-15T22:34:27;98324.19;;;9.69;66.14
57000;BME280;42891;50.006;21.964;2022-11-15T22:38:27;98332.56;;;9.93;67.60
57000;BME280;42891;50.006;21.964;2022-11-15T22:42:28;98333.06;;;9.96;68.36
57000;BME280;42891;50.006;21.964;2022-11-15T22:46:29;98323.94;;;9.90;68.81
57000;BME280;42891;50.006;21.964;2022-11-15T22:50:29;98316.84;;;9.91;67.94
57000;BME280;42891;50.006;21.964;2022-11-15T22:54:30;98309.53;;;9.85;69.56
57000;BME280;42891;50.006;21.964;2022-11-15T22:58:31;98316.25;;;9.79;67.44
57000;BME280;42891;50.006;21.964;2022-11-15T23:02:32;98305.31;;;9.92;67.78
57000;BME280;42891;50.006;21.964;2022-11-15T23:06:32;98288.22;;;9.78;67.83